createdAt,value
2022-09-20T00:01:17.183Z,94008.84
2022-09-20T00:02:20.368Z,94006.77
2022-09-20T00:03:23.667Z,94005.98
2022-09-20T00:04:27.021Z,94001.94
2022-09-20T00:05:30.391Z,94001.25
2022-09-20T00:06:35.833Z,94001.75
2022-09-20T00:07:40.276Z,94003.56
2022-09-20T00:08:43.920Z,94002.56
2022-09-20T00:09:47.191Z,94004.13
2022-09-20T00:10:50.777Z,94006.32
2022-09-20T00:11:54.515Z,94005.30
2022-09-20T00:12:58.051Z,94009.66
2022-09-20T00:14:03.101Z,94006.38
2022-09-20T00:15:07.909Z,94009.98
2022-09-20T00:16:14.570Z,94005.77
2022-09-20T00:17:17.780Z,94005.09
2022-09-20T00:18:20.985Z,94005.42
2022-09-20T00:19:24.153Z,94005.93
2022-09-20T00:20:27.485Z,94004.70
2022-09-20T00:21:33.146Z,93998.39
2022-09-20T00:22:36.614Z,93998.98
2022-09-20T00:23:39.773Z,93995.33
2022-09-20T00:24:48.237Z,94000.30
2022-09-20T00:26:00.614Z,94000.59
2022-09-20T00:27:04.675Z,93997.85
2022-09-20T00:28:08.828Z,94000.18
2022-09-20T00:29:14.027Z,94000.11
2022-09-20T00:30:17.341Z,93999.85
2022-09-20T00:31:20.784Z,94000.50
2022-09-20T00:32:24.087Z,93997.27
2022-09-20T00:33:48.012Z,93998.58
2022-09-20T00:35:11.090Z,93998.96
2022-09-20T00:36:14.540Z,93993.81
2022-09-20T00:37:17.811Z,93997.04
2022-09-20T00:38:21.210Z,93997.52
2022-09-20T00:39:24.575Z,93998.65
2022-09-20T00:40:27.986Z,93996.36
2022-09-20T00:41:32.537Z,93992.83
2022-09-20T00:42:35.907Z,93998.88
2022-09-20T00:43:46.641Z,93997.42
2022-09-20T00:44:55.578Z,93993.94
2022-09-20T00:45:59.230Z,93995.52
2022-09-20T00:47:03.225Z,93998.95
2022-09-20T00:48:33.100Z,93992.77
2022-09-20T00:49:39.107Z,93998.75
2022-09-20T00:50:54.114Z,94003.19
2022-09-20T00:52:02.533Z,93996.26
2022-09-20T00:53:09.449Z,93998.73
2022-09-20T00:54:20.291Z,94000.03
2022-09-20T00:55:24.472Z,93999.27
2022-09-20T00:56:33.132Z,94000.69
2022-09-20T00:57:38.936Z,94003.44
2022-09-20T00:58:47.005Z,94003.52
2022-09-20T00:59:53.005Z,93987.96
2022-09-20T01:00:58.304Z,94001.76
2022-09-20T01:02:16.591Z,94005.92
2022-09-20T01:03:23.297Z,94000.48
2022-09-20T01:04:27.762Z,93999.48
2022-09-20T01:05:31.308Z,94002.35
2022-09-20T01:06:35.503Z,93999.73
2022-09-20T01:07:39.220Z,93998.75
2022-09-20T01:08:47.962Z,93999.05
2022-09-20T01:09:52.090Z,94000.45
2022-09-20T01:10:55.421Z,93998.13
2022-09-20T01:12:03.790Z,94000.56
2022-09-20T01:13:07.127Z,93999.77
2022-09-20T01:14:13.271Z,93999.14
2022-09-20T01:15:17.020Z,94000.37
2022-09-20T01:16:21.868Z,93998.74
2022-09-20T01:17:28.151Z,94000.89
2022-09-20T01:18:35.557Z,94002.46
2022-09-20T01:20:00.496Z,94002.73
2022-09-20T01:21:05.782Z,93999.98
2022-09-20T01:22:33.930Z,93997.77
2022-09-20T01:24:13.190Z,93995.77
2022-09-20T01:25:54.299Z,93998.58
2022-09-20T01:27:09.435Z,93995.20
2022-09-20T01:28:13.559Z,93993.26
2022-09-20T01:29:31.921Z,93992.34
2022-09-20T01:30:49.248Z,93993.36
2022-09-20T01:31:56.891Z,93992.08
2022-09-20T01:33:21.610Z,93984.16
2022-09-20T01:34:34.073Z,93990.16
2022-09-20T01:35:39.491Z,93990.66
2022-09-20T01:36:42.655Z,93990.35
2022-09-20T01:38:06.985Z,93989.82
2022-09-20T01:39:19.580Z,93978.39
2022-09-20T01:40:33.794Z,93986.95
2022-09-20T01:41:39.828Z,93989.38
2022-09-20T01:43:05.735Z,93990.83
2022-09-20T01:44:23.140Z,93988.00
2022-09-20T01:45:32.618Z,93993.46
2022-09-20T01:46:37.360Z,93989.22
2022-09-20T01:48:13.251Z,93987.51
2022-09-20T01:49:44.305Z,93988.59
2022-09-20T01:51:02.655Z,93991.94
2022-09-20T01:52:11.824Z,93991.89
2022-09-20T01:53:21.007Z,93991.15
2022-09-20T01:54:30.545Z,93990.45
2022-09-20T01:55:40.796Z,93987.98
2022-09-20T01:57:01.850Z,93990.86
2022-09-20T01:58:19.997Z,93990.96
2022-09-20T01:59:41.915Z,93992.23
2022-09-20T02:01:23.135Z,93990.64
2022-09-20T02:02:56.586Z,93989.64
2022-09-20T02:04:34.116Z,93990.13
2022-09-20T02:06:03.500Z,93990.61
2022-09-20T02:07:21.491Z,93987.43
2022-09-20T02:08:52.809Z,93990.34
2022-09-20T02:10:04.295Z,93994.20
2022-09-20T02:11:17.196Z,93992.36
2022-09-20T02:12:29.416Z,93989.90
2022-09-20T02:13:51.386Z,93982.52
2022-09-20T02:15:03.490Z,93987.80
2022-09-20T02:16:37.824Z,93994.80
2022-09-20T02:17:59.311Z,93990.45
2022-09-20T02:19:14.497Z,93986.41
2022-09-20T02:20:32.675Z,93983.27
2022-09-20T02:22:14.635Z,93989.26
2022-09-20T02:23:17.970Z,93985.52
2022-09-20T02:24:39.640Z,93984.29
2022-09-20T02:25:45.767Z,93984.19
2022-09-20T02:27:13.712Z,93986.34
2022-09-20T02:28:32.113Z,93987.08
2022-09-20T02:29:47.466Z,93986.65
2022-09-20T02:31:03.100Z,93987.02
2022-09-20T02:32:24.333Z,93988.19
2022-09-20T02:34:05.219Z,93987.09
2022-09-20T02:35:33.051Z,93988.18
2022-09-20T02:36:48.222Z,93984.80
2022-09-20T02:38:28.896Z,93987.19
2022-09-20T02:40:07.664Z,93990.45
2022-09-20T02:41:22.753Z,93991.86
2022-09-20T02:42:37.428Z,93990.27
2022-09-20T02:44:05.085Z,93991.76
2022-09-20T02:45:18.826Z,93995.73
2022-09-20T02:46:37.494Z,93985.18
2022-09-20T02:47:43.609Z,93989.16
2022-09-20T02:49:11.427Z,93990.80
2022-09-20T02:50:30.209Z,93992.05
2022-09-20T02:51:44.204Z,93990.01
2022-09-20T02:53:11.942Z,93988.19
2022-09-20T02:54:27.345Z,93993.95
2022-09-20T02:55:55.126Z,93990.94
2022-09-20T02:57:20.840Z,93989.48
2022-09-20T02:58:35.744Z,93993.50
2022-09-20T03:00:13.257Z,93995.95
2022-09-20T03:01:45.699Z,93996.23
2022-09-20T03:02:55.246Z,93997.65
2022-09-20T03:04:07.324Z,93996.18
2022-09-20T03:05:30.220Z,93994.88
2022-09-20T03:06:39.405Z,93994.95
2022-09-20T03:08:16.355Z,94000.60
2022-09-20T03:09:25.431Z,93996.66
2022-09-20T03:10:39.465Z,93998.95
2022-09-20T03:11:58.887Z,93999.91
2022-09-20T03:13:26.634Z,93997.63
2022-09-20T03:14:42.680Z,94000.82
2022-09-20T03:15:58.224Z,93996.95
2022-09-20T03:17:13.515Z,93998.79
2022-09-20T03:18:27.333Z,94002.98
2022-09-20T03:20:06.564Z,93999.09
2022-09-20T03:21:18.645Z,93998.67
2022-09-20T03:22:30.727Z,93999.59
2022-09-20T03:24:04.700Z,93990.39
2022-09-20T03:25:28.266Z,93990.73
2022-09-20T03:26:53.007Z,93994.35
2022-09-20T03:28:17.555Z,93996.23
2022-09-20T03:29:47.470Z,93991.73
2022-09-20T03:31:01.007Z,93995.85
2022-09-20T03:32:27.596Z,93994.73
2022-09-20T03:33:54.052Z,93992.64
2022-09-20T03:35:15.152Z,93997.90
2022-09-20T03:36:30.554Z,93999.73
2022-09-20T03:37:48.053Z,93995.23
2022-09-20T03:39:16.331Z,93997.73
2022-09-20T03:41:04.111Z,93998.70
2022-09-20T03:42:29.348Z,93998.94
2022-09-20T03:43:35.551Z,94000.83
2022-09-20T03:45:08.071Z,94003.23
2022-09-20T03:46:22.781Z,94003.03
2022-09-20T03:47:58.607Z,94001.53
2022-09-20T03:49:04.793Z,94002.95
2022-09-20T03:50:29.156Z,93998.72
2022-09-20T03:51:49.106Z,93999.71
2022-09-20T03:53:17.120Z,93999.02
2022-09-20T03:54:48.467Z,94004.19
2022-09-20T03:55:58.755Z,94003.39
2022-09-20T03:57:13.947Z,94000.82
2022-09-20T03:58:51.166Z,94002.63
2022-09-20T04:00:09.377Z,94001.14
2022-09-20T04:01:15.552Z,94003.48
2022-09-20T04:02:39.119Z,94006.11
2022-09-20T04:04:02.268Z,94006.27
2022-09-20T04:05:10.439Z,94009.77
2022-09-20T04:06:32.129Z,94010.55
2022-09-20T04:07:56.596Z,94012.59
2022-09-20T04:09:26.829Z,94012.58
2022-09-20T04:11:08.426Z,94015.77
2022-09-20T04:12:20.611Z,94016.74
2022-09-20T04:13:32.308Z,94013.08
2022-09-20T04:15:05.408Z,94015.48
2022-09-20T04:16:23.826Z,94015.69
2022-09-20T04:17:44.767Z,94018.70
2022-09-20T04:19:14.285Z,94016.50
2022-09-20T04:20:40.456Z,94019.15
2022-09-20T04:21:57.281Z,94021.77
2022-09-20T04:23:15.925Z,94019.42
2022-09-20T04:24:44.960Z,94015.45
2022-09-20T04:25:51.386Z,94017.14
2022-09-20T04:27:12.986Z,94020.90
2022-09-20T04:28:59.535Z,94016.05
2022-09-20T04:30:07.932Z,94016.10
2022-09-20T04:32:00.692Z,94015.14
2022-09-20T04:33:12.263Z,94007.84
2022-09-20T04:34:23.195Z,94009.59
2022-09-20T04:35:47.830Z,94011.36
2022-09-20T04:37:05.773Z,94009.03
2022-09-20T04:38:20.135Z,94014.41
2022-09-20T04:39:29.103Z,94013.14
2022-09-20T04:40:55.414Z,94017.84
2022-09-20T04:42:30.351Z,94022.50
2022-09-20T04:44:22.104Z,94025.70
2022-09-20T04:45:53.041Z,94023.54
2022-09-20T04:47:36.821Z,94025.85
2022-09-20T04:49:03.551Z,94030.91
2022-09-20T04:50:23.323Z,94032.94
2022-09-20T04:52:06.012Z,94030.41
2022-09-20T04:53:43.676Z,94029.82
2022-09-20T04:55:36.171Z,94031.45
2022-09-20T04:56:45.279Z,94034.69
2022-09-20T04:58:06.928Z,94031.13
2022-09-20T04:59:10.852Z,94029.88
2022-09-20T05:00:20.658Z,94032.48
2022-09-20T05:01:48.312Z,94031.15
2022-09-20T05:03:29.750Z,94030.33
2022-09-20T05:04:51.467Z,94032.31
2022-09-20T05:06:30.587Z,94033.98
2022-09-20T05:08:00.166Z,94033.02
2022-09-20T05:09:24.660Z,94032.58
2022-09-20T05:10:51.680Z,94029.86
2022-09-20T05:12:04.036Z,94028.67
2022-09-20T05:13:50.526Z,94030.66
2022-09-20T05:14:56.519Z,94029.48
2022-09-20T05:16:17.143Z,94030.77
2022-09-20T05:17:40.255Z,94028.95
2022-09-20T05:19:01.800Z,94030.34
2022-09-20T05:20:14.650Z,94032.20
2022-09-20T05:21:34.956Z,94033.15
2022-09-20T05:22:57.372Z,94031.60
2022-09-20T05:24:40.885Z,94029.61
2022-09-20T05:25:52.219Z,94028.60
2022-09-20T05:27:04.580Z,94024.50
2022-09-20T05:28:29.555Z,94026.96
2022-09-20T05:30:06.715Z,94026.17
2022-09-20T05:31:42.101Z,94033.94
2022-09-20T05:33:10.765Z,94031.59
2022-09-20T05:34:55.821Z,94035.52
2022-09-20T05:36:05.154Z,94036.23
2022-09-20T05:37:37.008Z,94039.83
2022-09-20T05:39:03.750Z,94045.33
2022-09-20T05:40:46.461Z,94045.84
2022-09-20T05:42:02.906Z,94047.61
2022-09-20T05:43:14.428Z,94047.14
2022-09-20T05:44:23.489Z,94047.02
2022-09-20T05:45:48.662Z,94044.02
2022-09-20T05:47:18.396Z,94047.27
2022-09-20T05:48:24.244Z,94048.13
2022-09-20T05:49:47.364Z,94045.90
2022-09-20T05:51:04.038Z,94048.08
2022-09-20T05:52:15.988Z,94049.20
2022-09-20T05:53:56.390Z,94048.21
2022-09-20T05:55:24.381Z,94041.76
2022-09-20T05:56:43.375Z,94044.71
2022-09-20T05:58:12.310Z,94045.35
2022-09-20T05:59:30.382Z,94044.92
2022-09-20T06:00:44.109Z,94048.02
2022-09-20T06:01:53.390Z,94047.44
2022-09-20T06:03:19.767Z,94050.20
2022-09-20T06:04:31.554Z,94055.31
2022-09-20T06:05:43.542Z,94055.26
2022-09-20T06:07:10.780Z,94056.77
2022-09-20T06:08:30.875Z,94060.34
2022-09-20T06:09:46.261Z,94068.80
2022-09-20T06:10:54.996Z,94064.84
2022-09-20T06:12:20.819Z,94066.74
2022-09-20T06:13:47.480Z,94061.83
2022-09-20T06:15:04.222Z,94068.52
2022-09-20T06:16:14.617Z,94067.17
2022-09-20T06:17:31.360Z,94064.92
2022-09-20T06:18:34.575Z,94062.28
2022-09-20T06:20:24.710Z,94060.98
2022-09-20T06:21:49.233Z,94064.30
2022-09-20T06:22:56.871Z,94066.92
2022-09-20T06:24:02.532Z,94070.61
2022-09-20T06:25:08.362Z,94067.53
2022-09-20T06:26:36.858Z,94068.20
2022-09-20T06:27:58.544Z,94067.88
2022-09-20T06:29:06.423Z,94063.61
2022-09-20T06:30:26.708Z,94066.84
2022-09-20T06:31:30.465Z,94063.58
2022-09-20T06:32:56.515Z,94064.45
2022-09-20T06:34:14.729Z,94061.16
2022-09-20T06:35:18.326Z,94057.95
2022-09-20T06:36:51.700Z,94060.13
2022-09-20T06:39:21.100Z,94066.52
2022-09-20T06:41:20.085Z,94064.71
2022-09-20T06:42:27.057Z,94068.95
2022-09-20T06:43:31.921Z,94067.95
2022-09-20T06:44:38.310Z,94071.27
2022-09-20T06:45:43.073Z,94073.21
2022-09-20T06:46:46.270Z,94071.47
2022-09-20T06:47:51.483Z,94071.73
2022-09-20T06:48:55.521Z,94069.15
2022-09-20T06:50:01.978Z,94070.42
2022-09-20T06:51:05.725Z,94077.51
2022-09-20T06:52:14.791Z,94073.73
2022-09-20T06:53:23.627Z,94074.17
2022-09-20T06:54:27.950Z,94079.21
2022-09-20T06:55:37.635Z,94078.76
2022-09-20T06:56:40.868Z,94075.85
2022-09-20T06:57:44.389Z,94073.09
2022-09-20T06:58:47.530Z,94071.17
2022-09-20T06:59:50.690Z,94069.17
2022-09-20T07:00:54.066Z,94064.58
2022-09-20T07:01:57.387Z,94070.39
2022-09-20T07:03:03.396Z,94068.30
2022-09-20T07:04:06.799Z,94071.42
2022-09-20T07:05:17.716Z,94068.84
2022-09-20T07:06:20.847Z,94062.17
2022-09-20T07:07:24.716Z,94062.63
2022-09-20T07:08:30.396Z,94065.88
2022-09-20T07:09:33.550Z,94061.33
2022-09-20T07:10:36.995Z,94063.45
2022-09-20T07:11:40.323Z,94068.20
2022-09-20T07:12:43.626Z,94070.48
2022-09-20T07:13:52.296Z,94073.68
2022-09-20T07:14:55.639Z,94076.37
2022-09-20T07:16:07.347Z,94076.08
2022-09-20T07:17:12.915Z,94074.60
2022-09-20T07:18:16.355Z,94083.05
2022-09-20T07:19:19.903Z,94084.38
2022-09-20T07:20:23.475Z,94080.25
2022-09-20T07:21:26.811Z,94088.15
2022-09-20T07:22:30.385Z,94088.60
2022-09-20T07:23:33.751Z,94099.35
2022-09-20T07:24:36.947Z,94093.88
2022-09-20T07:25:40.121Z,94094.29
2022-09-20T07:26:56.601Z,94093.15
2022-09-20T07:28:00.011Z,94103.47
2022-09-20T07:29:03.271Z,94095.47
2022-09-20T07:30:08.310Z,94095.83
2022-09-20T07:31:11.585Z,94094.45
2022-09-20T07:32:18.728Z,94096.13
2022-09-20T07:33:22.326Z,94090.84
2022-09-20T07:34:27.207Z,94089.53
2022-09-20T07:35:30.649Z,94092.16
2022-09-20T07:36:34.190Z,94101.45
2022-09-20T07:37:37.818Z,94102.73
2022-09-20T07:38:42.215Z,94102.36
2022-09-20T07:39:46.171Z,94097.54
2022-09-20T07:41:00.892Z,94101.77
2022-09-20T07:42:06.572Z,94101.52
2022-09-20T07:43:13.199Z,94106.89
2022-09-20T07:44:24.558Z,94104.47
2022-09-20T07:45:28.142Z,94106.98
2022-09-20T07:46:36.240Z,94106.08
2022-09-20T07:47:41.420Z,94103.36
2022-09-20T07:48:45.575Z,94104.17
2022-09-20T07:49:48.822Z,94102.01
2022-09-20T07:50:57.317Z,94105.21
2022-09-20T07:52:00.622Z,94101.79
2022-09-20T07:53:06.451Z,94094.35
2022-09-20T07:54:12.115Z,94098.20
2022-09-20T07:55:15.494Z,94099.47
2022-09-20T07:56:20.945Z,94096.00
2022-09-20T07:57:24.158Z,94096.11
2022-09-20T07:58:29.280Z,94100.13
2022-09-20T07:59:35.325Z,94096.19
2022-09-20T08:00:38.535Z,94092.98
2022-09-20T08:01:42.996Z,94094.73
2022-09-20T08:02:48.455Z,94095.90
2022-09-20T08:03:52.185Z,94096.85
2022-09-20T08:04:55.600Z,94096.78
2022-09-20T08:06:13.578Z,94100.33
2022-09-20T08:07:16.754Z,94095.90
2022-09-20T08:08:22.151Z,94103.11
2022-09-20T08:09:25.491Z,94098.11
2022-09-20T08:10:28.828Z,94101.24
2022-09-20T08:11:32.339Z,94102.79
2022-09-20T08:14:08.855Z,94098.16
2022-09-20T08:15:14.840Z,94098.95
2022-09-20T08:16:21.156Z,94101.71
2022-09-20T08:17:24.457Z,94097.52
2022-09-20T08:18:28.585Z,94088.05
2022-09-20T08:19:31.833Z,94106.40
2022-09-20T08:20:41.170Z,94099.23
2022-09-20T08:21:45.126Z,94101.53
2022-09-20T08:23:06.278Z,94100.96
2022-09-20T08:24:11.744Z,94102.08
2022-09-20T08:25:26.604Z,94100.20
2022-09-20T08:26:31.718Z,94101.20
2022-09-20T08:27:35.416Z,94102.33
2022-09-20T08:28:39.774Z,94099.50
2022-09-20T08:29:42.900Z,94097.63
2022-09-20T08:30:45.978Z,94102.64
2022-09-20T08:31:49.382Z,94102.64
2022-09-20T08:32:54.103Z,94098.30
2022-09-20T08:33:59.284Z,94096.17
2022-09-20T08:35:02.630Z,94100.86
2022-09-20T08:36:07.645Z,94095.96
2022-09-20T08:37:10.890Z,94099.34
2022-09-20T08:41:07.515Z,94101.86
2022-09-20T08:42:15.160Z,94106.04
2022-09-20T08:43:22.227Z,94102.09
2022-09-20T08:45:01.032Z,94103.88
2022-09-20T08:46:12.149Z,94098.02
2022-09-20T08:47:25.882Z,94095.77
2022-09-20T08:48:33.953Z,94095.73
2022-09-20T08:49:38.792Z,94088.10
2022-09-20T08:50:42.268Z,94088.16
2022-09-20T08:51:50.750Z,94087.48
2022-09-20T08:53:00.213Z,94083.63
2022-09-20T08:54:07.418Z,94085.86
2022-09-20T08:55:20.759Z,94081.23
2022-09-20T08:56:29.126Z,94083.02
2022-09-20T08:57:37.372Z,94089.02
2022-09-20T08:58:40.682Z,94083.23
2022-09-20T08:59:44.943Z,94091.11
2022-09-20T09:00:48.295Z,94093.17
2022-09-20T09:01:53.841Z,94089.08
2022-09-20T09:03:03.547Z,94088.31
2022-09-20T09:04:23.344Z,94088.26
2022-09-20T09:05:33.430Z,94089.28
2022-09-20T09:06:36.740Z,94087.31
2022-09-20T09:07:40.330Z,94087.52
2022-09-20T09:08:44.742Z,94088.36
2022-09-20T09:09:52.050Z,94090.92
2022-09-20T09:10:58.807Z,94085.42
2022-09-20T09:12:02.316Z,94093.14
2022-09-20T09:13:07.539Z,94089.12
2022-09-20T09:14:43.034Z,94091.77
2022-09-20T09:15:53.470Z,94094.51
2022-09-20T09:16:57.124Z,94096.10
2022-09-20T09:18:00.644Z,94099.67
2022-09-20T09:19:34.079Z,94093.33
2022-09-20T09:20:48.003Z,94099.25
2022-09-20T09:21:51.145Z,94095.36
2022-09-20T09:23:09.210Z,94098.79
2022-09-20T09:24:19.473Z,94092.66
2022-09-20T09:25:32.381Z,94089.98
2022-09-20T09:26:39.107Z,94087.47
2022-09-20T09:28:00.918Z,94085.90
2022-09-20T09:29:16.330Z,94082.54
2022-09-20T09:30:27.314Z,94081.88
2022-09-20T09:31:30.556Z,94083.87
2022-09-20T09:32:35.319Z,94088.85
2022-09-20T09:33:45.215Z,94083.14
2022-09-20T09:34:52.682Z,94086.88
2022-09-20T09:36:04.547Z,94085.50
2022-09-20T09:37:27.822Z,94082.62
2022-09-20T09:38:38.425Z,94088.33
2022-09-20T09:39:41.650Z,94088.15
2022-09-20T09:41:02.484Z,94087.02
2022-09-20T09:42:23.822Z,94093.31
2022-09-20T09:43:29.290Z,94097.73
2022-09-20T09:44:34.062Z,94099.61
2022-09-20T09:45:43.240Z,94103.70
2022-09-20T09:46:46.419Z,94101.45
2022-09-20T09:47:49.645Z,94100.89
2022-09-20T09:49:11.271Z,94104.95
2022-09-20T09:50:22.110Z,94097.07
2022-09-20T09:51:26.067Z,94098.98
2022-09-20T09:52:41.092Z,94099.36
2022-09-20T09:53:45.191Z,94099.52
2022-09-20T09:54:53.185Z,94100.98
2022-09-20T09:56:13.889Z,94099.13
2022-09-20T09:57:33.916Z,94102.51
2022-09-20T09:58:56.369Z,94114.38
2022-09-20T10:00:17.565Z,94112.56
2022-09-20T10:01:44.533Z,94116.20
2022-09-20T10:03:09.069Z,94137.21
2022-09-20T10:04:22.811Z,94150.27
2022-09-20T10:05:35.483Z,94151.55
2022-09-20T10:06:50.515Z,94148.77
2022-09-20T10:08:01.316Z,94150.64
2022-09-20T10:09:28.174Z,94147.42
2022-09-20T10:10:34.509Z,94152.85
2022-09-20T10:11:43.570Z,94146.70
2022-09-20T10:13:09.989Z,94148.17
2022-09-20T10:14:21.897Z,94149.85
2022-09-20T10:15:35.912Z,94147.84
2022-09-20T10:16:45.209Z,94139.91
2022-09-20T10:17:56.366Z,94140.20
2022-09-20T10:19:02.123Z,94137.05
2022-09-20T10:20:26.351Z,94134.77
2022-09-20T10:21:49.028Z,94139.16
2022-09-20T10:24:43.147Z,94125.55
2022-09-20T10:26:08.235Z,94124.19
2022-09-20T10:27:29.680Z,94119.70
2022-09-20T10:28:32.885Z,94115.93
2022-09-20T10:29:54.370Z,94115.80
2022-09-20T10:31:12.549Z,94109.34
2022-09-20T10:32:27.799Z,94108.13
2022-09-20T10:33:49.888Z,94100.49
2022-09-20T10:34:59.115Z,94097.52
2022-09-20T10:36:08.520Z,94088.36
2022-09-20T10:37:20.230Z,94087.05
2022-09-20T10:38:31.051Z,94092.20
2022-09-20T10:39:34.214Z,94091.92
2022-09-20T10:41:02.420Z,94088.40
2022-09-20T10:42:36.695Z,94089.33
2022-09-20T10:44:04.221Z,94087.05
2022-09-20T10:45:08.533Z,94081.75
2022-09-20T10:46:31.382Z,94085.16
2022-09-20T10:47:39.104Z,94087.55
2022-09-20T10:48:48.724Z,94084.35
2022-09-20T10:49:51.832Z,94082.13
2022-09-20T10:50:58.720Z,94077.73
2022-09-20T10:52:08.528Z,94079.66
2022-09-20T10:53:11.597Z,94078.86
2022-09-20T10:54:17.425Z,94078.29
2022-09-20T10:55:20.559Z,94081.45
2022-09-20T10:56:33.777Z,94082.63
2022-09-20T10:57:55.900Z,94068.59
2022-09-20T10:59:07.984Z,94076.42
2022-09-20T11:00:26.993Z,94078.45
2022-09-20T11:01:39.451Z,94078.79
2022-09-20T11:02:42.760Z,94083.67
2022-09-20T11:03:53.253Z,94080.17
2022-09-20T11:04:56.246Z,94082.97
2022-09-20T11:06:06.725Z,94082.88
2022-09-20T11:07:22.073Z,94078.88
2022-09-20T11:08:28.785Z,94076.21
2022-09-20T11:09:36.602Z,94074.23
2022-09-20T11:10:58.518Z,94072.39
2022-09-20T11:12:17.499Z,94074.00
2022-09-20T11:13:23.776Z,94072.98
2022-09-20T11:14:33.863Z,94078.88
2022-09-20T11:15:47.356Z,94076.77
2022-09-20T11:17:02.158Z,94070.48
2022-09-20T11:18:12.542Z,94067.88
2022-09-20T11:19:15.784Z,94068.39
2022-09-20T11:20:21.609Z,94067.98
2022-09-20T11:21:47.972Z,94065.51
2022-09-20T11:23:11.482Z,94067.98
2022-09-20T11:24:30.630Z,94069.27
2022-09-20T11:25:40.498Z,94069.49
2022-09-20T11:26:46.880Z,94065.55
2022-09-20T11:27:53.084Z,94066.63
2022-09-20T11:28:59.403Z,94061.86
2022-09-20T11:30:02.582Z,94066.20
2022-09-20T11:31:14.905Z,94064.05
2022-09-20T11:32:23.321Z,94075.69
2022-09-20T11:33:32.212Z,94062.83
2022-09-20T11:34:40.328Z,94068.30
2022-09-20T11:35:47.218Z,94072.19
2022-09-20T11:36:57.745Z,94068.98
2022-09-20T11:38:05.053Z,94065.77
2022-09-20T11:39:17.916Z,94064.40
2022-09-20T11:40:38.886Z,94063.91
2022-09-20T11:41:42.332Z,94066.52
2022-09-20T11:42:46.319Z,94067.83
2022-09-20T11:43:49.794Z,94069.13
2022-09-20T11:45:03.299Z,94066.69
2022-09-20T11:46:09.127Z,94070.61
2022-09-20T11:47:36.614Z,94068.31
2022-09-20T11:48:46.722Z,94068.83
2022-09-20T11:50:08.432Z,94069.98
2022-09-20T11:51:27.073Z,94065.80
2022-09-20T11:52:56.129Z,94064.65
2022-09-20T11:54:12.692Z,94065.41
2022-09-20T11:55:17.021Z,94067.04
2022-09-20T11:56:22.427Z,94060.20
2022-09-20T11:57:25.752Z,94066.27
2022-09-20T11:58:29.049Z,94064.23
2022-09-20T11:59:37.358Z,94063.23
2022-09-20T12:00:41.788Z,94054.67
2022-09-20T12:01:45.858Z,94057.95
2022-09-20T12:02:51.332Z,94062.52
2022-09-20T12:04:08.964Z,94063.73
2022-09-20T12:05:41.553Z,94055.06
2022-09-20T12:06:45.536Z,94056.71
2022-09-20T12:07:53.666Z,94062.11
2022-09-20T12:09:07.047Z,94061.95
2022-09-20T12:10:21.994Z,94062.52
2022-09-20T12:11:30.664Z,94066.14
2022-09-20T12:12:41.887Z,94075.11
2022-09-20T12:13:57.581Z,94084.95
2022-09-20T12:15:02.117Z,94087.23
2022-09-20T12:16:35.088Z,94085.36
2022-09-20T12:17:47.581Z,94092.09
2022-09-20T12:18:54.172Z,94091.00
2022-09-20T12:19:57.520Z,94100.00
2022-09-20T12:21:02.856Z,94104.59
2022-09-20T12:22:09.023Z,94104.57
2022-09-20T12:23:32.077Z,94113.84
2022-09-20T12:24:36.813Z,94107.99
2022-09-20T12:25:40.300Z,94109.48
2022-09-20T12:26:44.347Z,94109.16
2022-09-20T12:27:50.416Z,94110.47
2022-09-20T12:28:54.796Z,94109.02
2022-09-20T12:30:18.016Z,94113.41
2022-09-20T12:31:32.097Z,94110.23
2022-09-20T12:32:42.086Z,94110.31
2022-09-20T12:34:02.258Z,94111.73
2022-09-20T12:35:25.805Z,94108.73
2022-09-20T12:36:31.021Z,94112.07
2022-09-20T12:37:34.907Z,94109.93
2022-09-20T12:38:39.422Z,94109.47
2022-09-20T12:39:50.700Z,94110.21
2022-09-20T12:41:14.408Z,94104.45
2022-09-20T12:42:21.823Z,94099.77
2022-09-20T12:43:25.644Z,94096.31
2022-09-20T12:44:42.442Z,94094.02
2022-09-20T12:45:52.431Z,94094.51
2022-09-20T12:47:13.023Z,94092.62
2022-09-20T12:48:19.690Z,94090.50
2022-09-20T12:49:50.457Z,94093.98
2022-09-20T12:51:22.220Z,94098.58
2022-09-20T12:53:00.680Z,94090.90
2022-09-20T12:54:06.810Z,94093.86
2022-09-20T12:55:11.423Z,94087.38
2022-09-20T12:56:18.858Z,94089.63
2022-09-20T12:57:29.167Z,94087.76
2022-09-20T12:58:35.841Z,94085.67
2022-09-20T12:59:39.225Z,94086.06
2022-09-20T13:00:46.391Z,94087.98
2022-09-20T13:01:49.917Z,94092.08
2022-09-20T13:02:57.895Z,94090.25
2022-09-20T13:04:20.142Z,94089.88
2022-09-20T13:05:40.574Z,94084.51
2022-09-20T13:06:44.531Z,94088.85
2022-09-20T13:07:52.582Z,94088.56
2022-09-20T13:09:06.270Z,94088.21
2022-09-20T13:10:23.823Z,94083.57
2022-09-20T13:11:27.921Z,94082.27
2022-09-20T13:12:32.747Z,94080.36
2022-09-20T13:13:40.722Z,94076.79
2022-09-20T13:14:44.884Z,94080.86
2022-09-20T13:15:50.363Z,94080.35
2022-09-20T13:17:13.931Z,94078.33
2022-09-20T13:18:21.372Z,94077.63
2022-09-20T13:19:30.245Z,94076.86
2022-09-20T13:20:35.512Z,94069.34
2022-09-20T13:21:41.129Z,94077.81
2022-09-20T13:22:47.305Z,94081.42
2022-09-20T13:23:52.627Z,94082.94
2022-09-20T13:25:01.211Z,94083.81
2022-09-20T13:26:09.552Z,94082.98
2022-09-20T13:27:19.276Z,94083.02
2022-09-20T13:28:32.608Z,94081.40
2022-09-20T13:29:43.181Z,94079.73
2022-09-20T13:30:46.711Z,94082.27
2022-09-20T13:31:50.128Z,94076.83
2022-09-20T13:32:53.557Z,94073.45
2022-09-20T13:34:12.503Z,94073.77
2022-09-20T13:35:24.665Z,94073.99
2022-09-20T13:36:29.532Z,94072.50
2022-09-20T13:37:32.972Z,94069.80
2022-09-20T13:38:38.154Z,94073.36
2022-09-20T13:39:42.173Z,94069.09
2022-09-20T13:40:49.566Z,94071.64
2022-09-20T13:41:53.214Z,94073.91
2022-09-20T13:43:22.202Z,94074.98
2022-09-20T13:44:25.695Z,94073.76
2022-09-20T13:45:33.657Z,94075.70
2022-09-20T13:46:43.598Z,94079.02
2022-09-20T13:47:51.594Z,94077.73
2022-09-20T13:48:59.895Z,94070.56
2022-09-20T13:50:10.871Z,94074.23
2022-09-20T13:51:18.380Z,94075.40
2022-09-20T13:52:26.117Z,94070.39
2022-09-20T13:53:47.105Z,94067.35
2022-09-20T13:54:50.546Z,94068.91
2022-09-20T13:55:57.358Z,94071.19
2022-09-20T13:57:02.974Z,94066.88
2022-09-20T13:58:07.838Z,94070.13
2022-09-20T13:59:19.316Z,94068.61
2022-09-20T14:00:23.273Z,94069.73
2022-09-20T14:01:30.546Z,94072.58
2022-09-20T14:02:34.499Z,94077.16
2022-09-20T14:03:37.680Z,94077.25
2022-09-20T14:04:41.032Z,94077.86
2022-09-20T14:05:52.085Z,94075.62
2022-09-20T14:06:57.060Z,94079.59
2022-09-20T14:08:00.860Z,94080.11
2022-09-20T14:09:10.463Z,94075.80
2022-09-20T14:10:31.928Z,94078.04
2022-09-20T14:11:37.168Z,94084.94
2022-09-20T14:12:40.330Z,94100.86
2022-09-20T14:13:45.172Z,94106.47
2022-09-20T14:14:48.453Z,94103.31
2022-09-20T14:15:52.034Z,94104.05
2022-09-20T14:16:58.802Z,94107.55
2022-09-20T14:18:04.643Z,94114.59
2022-09-20T14:19:08.442Z,94115.92
2022-09-20T14:20:15.570Z,94127.35
2022-09-20T14:21:22.888Z,94128.48
2022-09-20T14:22:28.755Z,94129.73
2022-09-20T14:23:32.875Z,94135.02
2022-09-20T14:24:37.745Z,94138.40
2022-09-20T14:25:41.033Z,94135.20
2022-09-20T14:27:00.059Z,94136.92
2022-09-20T14:28:24.576Z,94134.20